Time;durP1;ratioP1;P1;durP2;ratioP2;P2;SDS_P1;SDS_P2;PMS_P1;PMS_P2;Temp;Humidity;BMP_temperature;BMP_pressure;BME280_temperature;BME280_humidity;BME280_pressure;Samples;Min_cycle;Max_cycle;Signal;HPM_P1;HPM_P2
2023/09/28 00:02:50;;;;;;;6.20;5.70;;;15.60;99.90;;;;;;4984810;28;20465;-72
2023/09/28 00:05:19;;;;;;;6.80;6.20;;;15.50;99.90;;;;;;4990196;28;20434;-72
2023/09/28 00:07:45;;;;;;;5.40;4.90;;;15.60;99.90;;;;;;4992587;28;20739;-72
2023/09/28 00:10:12;;;;;;;5.57;5.07;;;15.50;99.90;;;;;;4993397;28;20474;-72
2023/09/28 00:12:42;;;;;;;6.47;5.87;;;15.40;99.90;;;;;;4990603;28;20218;-72
2023/09/28 00:15:09;;;;;;;7.83;7.13;;;15.50;99.90;;;;;;4992252;28;20442;-72
2023/09/28 00:17:36;;;;;;;7.67;6.17;;;15.50;99.90;;;;;;4990296;28;20530;-73
2023/09/28 00:20:04;;;;;;;9.60;5.67;;;15.50;99.90;;;;;;4992551;28;20443;-72
2023/09/28 00:22:29;;;;;;;6.40;5.80;;;15.50;99.90;;;;;;4989183;28;20465;-72
2023/09/28 00:24:55;;;;;;;7.23;6.57;;;15.50;99.90;;;;;;4992789;28;20438;-72
2023/09/28 00:27:21;;;;;;;5.27;4.77;;;15.50;99.90;;;;;;4991203;28;20203;-72
2023/09/28 00:29:47;;;;;;;5.87;5.40;;;15.50;99.90;;;;;;4992232;28;20947;-72
2023/09/28 00:32:13;;;;;;;7.17;5.40;;;15.50;99.90;;;;;;4991858;28;20211;-72
2023/09/28 00:34:38;;;;;;;6.73;5.73;;;15.50;99.90;;;;;;4984591;28;20585;-73
2023/09/28 00:37:04;;;;;;;6.10;5.50;;;15.60;99.90;;;;;;4993808;28;20719;-73
2023/09/28 00:39:31;;;;;;;6.00;5.50;;;15.60;99.90;;;;;;4991869;28;20548;-71
2023/09/28 00:41:56;;;;;;;6.20;5.50;;;15.50;99.90;;;;;;4990005;28;20184;-72
2023/09/28 00:44:22;;;;;;;6.00;5.40;;;15.50;99.90;;;;;;4988896;28;20853;-72
2023/09/28 00:46:48;;;;;;;6.20;5.67;;;15.50;99.90;;;;;;4992645;28;20188;-73
2023/09/28 00:49:16;;;;;;;8.40;5.43;;;15.50;99.90;;;;;;4992406;28;20190;-71
2023/09/28 00:51:44;;;;;;;5.80;5.30;;;15.80;99.90;;;;;;4996456;28;20580;-72
2023/09/28 00:54:11;;;;;;;6.00;5.43;;;15.40;99.90;;;;;;4995895;28;20435;-72
2023/09/28 00:56:38;;;;;;;5.50;5.07;;;15.30;99.90;;;;;;5004820;28;20426;-71
2023/09/28 00:59:03;;;;;;;6.07;5.60;;;15.40;99.90;;;;;;5002214;28;20431;-72
2023/09/28 01:01:31;;;;;;;6.13;5.53;;;15.30;99.90;;;;;;4994583;28;20454;-72
2023/09/28 01:04:00;;;;;;;8.00;6.20;;;15.50;99.90;;;;;;4991282;28;20206;-73
2023/09/28 01:06:26;;;;;;;6.20;5.60;;;15.30;99.90;;;;;;4994821;28;20422;-72
2023/09/28 01:08:52;;;;;;;5.70;5.20;;;15.30;99.90;;;;;;4997921;28;20949;-73
2023/09/28 01:11:20;;;;;;;8.77;5.33;;;15.30;99.90;;;;;;5003889;28;20167;-71
2023/09/28 01:13:49;;;;;;;6.33;5.73;;;15.40;99.90;;;;;;5002320;28;20538;-72
2023/09/28 01:16:14;;;;;;;5.20;4.80;;;15.40;99.90;;;;;;4993073;28;20458;-72
2023/09/28 01:18:40;;;;;;;5.93;5.33;;;15.40;99.90;;;;;;4993302;28;20852;-72
2023/09/28 01:21:10;;;;;;;6.43;5.93;;;15.40;99.90;;;;;;4988298;28;20548;-72
2023/09/28 01:23:36;;;;;;;6.00;5.33;;;15.40;99.90;;;;;;4987631;28;20481;-72
2023/09/28 01:26:01;;;;;;;5.30;4.90;;;15.50;99.90;;;;;;4985463;28;20438;-71
2023/09/28 01:28:27;;;;;;;6.67;5.23;;;15.50;99.90;;;;;;4994306;28;20419;-72
2023/09/28 01:30:53;;;;;;;6.73;6.10;;;15.50;99.90;;;;;;4990557;28;20183;-72
2023/09/28 01:33:18;;;;;;;6.03;5.40;;;15.50;99.90;;;;;;4991006;28;20254;-72
2023/09/28 01:35:44;;;;;;;5.80;5.20;;;15.60;99.90;;;;;;4990968;28;20307;-71
2023/09/28 01:38:34;;;;;;;5.77;5.27;;;15.60;99.90;;;;;;4999952;28;20676;-72
2023/09/28 01:40:59;;;;;;;10.07;6.70;;;15.60;99.90;;;;;;4986449;28;20537;-71
2023/09/28 01:43:25;;;;;;;5.53;5.03;;;15.60;99.90;;;;;;4994853;28;20465;-71
2023/09/28 01:45:50;;;;;;;6.10;5.60;;;15.50;99.90;;;;;;4990322;28;20194;-72
2023/09/28 01:48:16;;;;;;;5.97;5.23;;;15.50;99.90;;;;;;4992583;28;20179;-72
2023/09/28 01:50:41;;;;;;;7.30;5.03;;;15.40;99.90;;;;;;4990911;28;20179;-71
2023/09/28 01:53:07;;;;;;;8.97;5.60;;;15.40;99.90;;;;;;4991223;28;20203;-72
2023/09/28 01:55:32;;;;;;;5.33;4.93;;;15.40;99.90;;;;;;5000484;28;21055;-72
2023/09/28 01:57:59;;;;;;;5.33;4.83;;;15.40;99.90;;;;;;4991294;28;20210;-71
2023/09/28 02:00:25;;;;;;;5.10;4.70;;;15.40;99.90;;;;;;4992484;28;20199;-72
2023/09/28 02:02:53;;;;;;;6.60;6.00;;;15.40;99.90;;;;;;4987805;28;20498;-70
2023/09/28 02:05:21;;;;;;;6.30;5.70;;;15.50;99.90;;;;;;4990113;28;20275;-72
2023/09/28 02:07:48;;;;;;;5.87;5.33;;;15.50;99.90;;;;;;5005129;28;20435;-72
2023/09/28 02:10:14;;;;;;;6.27;5.60;;;15.40;99.90;;;;;;5002875;28;20437;-72
2023/09/28 02:12:41;;;;;;;6.43;5.80;;;15.40;99.90;;;;;;4989979;28;20983;-72
2023/09/28 02:15:09;;;;;;;6.17;5.67;;;15.40;99.90;;;;;;4990585;28;20951;-72
2023/09/28 02:17:36;;;;;;;6.70;6.00;;;15.40;99.90;;;;;;4992038;28;20495;-72
2023/09/28 02:20:05;;;;;;;7.40;5.57;;;15.40;99.90;;;;;;4991677;28;20435;-72
2023/09/28 02:22:31;;;;;;;6.20;5.60;;;15.40;99.90;;;;;;5007743;28;20471;-69
2023/09/28 02:24:57;;;;;;;6.40;5.73;;;15.30;99.90;;;;;;5002146;28;20444;-72
2023/09/28 02:27:22;;;;;;;8.80;5.90;;;15.40;99.90;;;;;;4996962;28;20650;-72
2023/09/28 02:29:48;;;;;;;6.47;5.77;;;15.40;99.90;;;;;;4996350;28;20179;-72
2023/09/28 02:32:14;;;;;;;6.97;6.30;;;15.40;99.90;;;;;;4995601;28;20281;-71
2023/09/28 02:34:39;;;;;;;6.70;6.10;;;15.40;99.90;;;;;;4994058;28;20183;-71
2023/09/28 02:37:06;;;;;;;6.50;5.90;;;15.40;99.90;;;;;;5007553;28;20167;-72
2023/09/28 02:39:34;;;;;;;7.07;6.47;;;15.40;99.90;;;;;;4996846;28;20186;-72
2023/09/28 02:42:00;;;;;;;5.37;4.87;;;15.40;99.90;;;;;;4994096;28;20438;-72
2023/09/28 02:44:25;;;;;;;5.57;5.07;;;15.40;99.90;;;;;;4993613;28;20857;-72
2023/09/28 02:46:51;;;;;;;6.87;6.37;;;15.30;99.90;;;;;;5004497;28;20274;-72
2023/09/28 02:49:16;;;;;;;5.63;5.13;;;15.30;99.90;;;;;;4995068;28;20646;-72
2023/09/28 02:51:43;;;;;;;6.40;5.90;;;15.30;99.90;;;;;;4994587;28;20266;-72
2023/09/28 02:54:08;;;;;;;6.50;5.93;;;15.30;99.90;;;;;;4994889;28;20183;-72
2023/09/28 02:56:34;;;;;;;5.33;4.87;;;15.30;99.90;;;;;;5006568;28;20501;-72
2023/09/28 02:58:59;;;;;;;7.10;6.00;;;15.30;99.90;;;;;;5007932;28;20605;-72
2023/09/28 03:01:26;;;;;;;7.13;5.97;;;15.30;99.90;;;;;;5009107;28;20175;-72
2023/09/28 03:03:53;;;;;;;6.90;6.27;;;15.40;99.90;;;;;;4991138;28;20340;-72
2023/09/28 03:06:20;;;;;;;7.10;4.93;;;15.30;99.90;;;;;;4998226;28;20442;-72
2023/09/28 03:08:47;;;;;;;5.93;5.50;;;15.30;99.90;;;;;;5015463;28;20484;-72
2023/09/28 03:11:15;;;;;;;6.90;6.20;;;15.30;99.90;;;;;;5013944;28;20425;-72
2023/09/28 03:13:40;;;;;;;6.70;5.27;;;15.30;99.90;;;;;;5004743;28;20477;-72
2023/09/28 03:16:07;;;;;;;6.50;5.73;;;15.30;99.90;;;;;;4993235;28;20669;-72
2023/09/28 03:18:32;;;;;;;6.73;6.10;;;15.30;99.90;;;;;;4997933;28;20679;-72
2023/09/28 03:20:58;;;;;;;6.90;6.20;;;15.40;99.90;;;;;;5004727;28;20438;-72
2023/09/28 03:23:23;;;;;;;6.83;6.27;;;15.40;99.90;;;;;;4994890;28;20208;-71
2023/09/28 03:25:49;;;;;;;6.33;5.83;;;15.40;99.90;;;;;;4990264;28;20538;-72
2023/09/28 03:28:14;;;;;;;5.33;4.93;;;15.40;99.90;;;;;;4993394;28;20238;-71
2023/09/28 03:30:40;;;;;;;7.73;7.07;;;15.40;99.90;;;;;;4992357;28;20207;-71
2023/09/28 03:33:05;;;;;;;6.03;5.33;;;15.40;99.90;;;;;;4993112;28;20741;-72
2023/09/28 03:35:31;;;;;;;8.87;6.60;;;15.40;99.90;;;;;;4992067;28;20195;-72
2023/09/28 03:37:58;;;;;;;6.67;5.97;;;15.40;99.90;;;;;;4992869;28;20859;-71
2023/09/28 03:40:33;;;;;;;6.43;5.93;;;15.40;99.90;;;;;;4989058;28;20183;-72
2023/09/28 03:42:58;;;;;;;6.40;5.80;;;15.50;99.90;;;;;;4989750;28;20517;-72
2023/09/28 03:45:24;;;;;;;8.27;6.90;;;15.50;99.90;;;;;;4991326;28;20450;-72
2023/09/28 03:47:51;;;;;;;6.37;5.70;;;15.50;99.90;;;;;;4993594;28;20180;-72
2023/09/28 03:50:18;;;;;;;6.63;5.70;;;15.50;99.90;;;;;;4992638;28;20185;-72
2023/09/28 03:52:46;;;;;;;12.10;6.03;;;15.50;99.90;;;;;;4990684;28;20466;-72
2023/09/28 03:55:17;;;;;;;6.50;5.90;;;15.40;99.90;;;;;;4988995;28;20496;-72
2023/09/28 03:57:43;;;;;;;7.47;6.87;;;15.50;99.90;;;;;;4992984;28;20507;-72
2023/09/28 04:00:14;;;;;;;6.30;5.50;;;15.40;99.90;;;;;;4993608;28;20525;-71
2023/09/28 04:02:45;;;;;;;6.30;5.80;;;15.40;99.90;;;;;;4990933;28;20293;-72
2023/09/28 04:05:11;;;;;;;7.60;5.70;;;15.40;99.90;;;;;;4988769;28;20523;-71
2023/09/28 04:07:38;;;;;;;9.70;5.83;;;15.30;99.90;;;;;;4992357;28;20528;-72
2023/09/28 04:10:04;;;;;;;6.47;5.90;;;15.30;99.90;;;;;;4993362;28;20426;-71
2023/09/28 04:12:30;;;;;;;6.13;5.53;;;15.30;99.90;;;;;;4993170;28;20505;-71
2023/09/28 04:14:55;;;;;;;6.63;5.93;;;15.30;99.90;;;;;;4990751;28;20466;-72
2023/09/28 04:17:21;;;;;;;6.50;5.77;;;15.40;99.90;;;;;;4992999;28;20485;-72
2023/09/28 04:19:47;;;;;;;8.33;6.80;;;15.30;99.90;;;;;;4992547;28;20230;-72
2023/09/28 04:22:13;;;;;;;6.80;6.10;;;15.40;99.90;;;;;;4993945;28;20246;-71
2023/09/28 04:24:38;;;;;;;6.87;6.17;;;15.40;99.90;;;;;;4986787;28;20645;-71
2023/09/28 04:27:04;;;;;;;6.40;5.80;;;15.30;99.90;;;;;;4991231;28;20449;-72
2023/09/28 04:29:30;;;;;;;5.90;5.40;;;15.30;99.90;;;;;;4992064;28;20190;-72
2023/09/28 04:31:55;;;;;;;7.23;6.53;;;15.30;99.90;;;;;;4986837;28;20207;-71
2023/09/28 04:34:21;;;;;;;6.37;5.77;;;15.20;99.90;;;;;;4986345;28;20303;-72
2023/09/28 04:36:47;;;;;;;6.37;5.87;;;15.30;99.90;;;;;;4988650;28;20230;-72
2023/09/28 04:39:13;;;;;;;6.10;5.60;;;15.30;99.90;;;;;;4997691;28;20649;-72
2023/09/28 04:41:39;;;;;;;6.70;6.10;;;15.30;99.90;;;;;;4988316;28;20708;-71
2023/09/28 04:44:06;;;;;;;6.20;5.60;;;15.30;99.90;;;;;;4991194;28;20458;-71
2023/09/28 04:46:32;;;;;;;7.60;6.90;;;15.20;99.90;;;;;;4988105;28;20441;-71
2023/09/28 04:48:58;;;;;;;7.33;6.63;;;15.30;99.90;;;;;;4990440;28;20442;-73
2023/09/28 04:51:23;;;;;;;6.30;5.80;;;15.30;99.90;;;;;;4990443;28;20849;-73
2023/09/28 04:53:49;;;;;;;8.40;6.27;;;15.20;99.90;;;;;;4991937;28;20603;-74
2023/09/28 04:56:18;;;;;;;9.53;6.80;;;15.30;99.90;;;;;;4992339;28;20522;-71
2023/09/28 04:58:45;;;;;;;9.00;6.10;;;15.40;99.90;;;;;;4996171;28;20184;-72
2023/09/28 05:01:11;;;;;;;9.53;8.57;;;15.40;99.90;;;;;;5001042;28;20470;-74
2023/09/28 05:03:37;;;;;;;12.73;6.80;;;15.40;99.90;;;;;;4993047;28;20466;-73
2023/09/28 05:06:02;;;;;;;6.47;5.97;;;15.40;99.90;;;;;;4992556;28;20651;-73
2023/09/28 05:08:28;;;;;;;6.00;5.50;;;15.40;99.90;;;;;;4993802;28;20186;-72
2023/09/28 05:10:57;;;;;;;7.23;6.57;;;15.40;99.90;;;;;;4999624;28;20192;-72
2023/09/28 05:13:23;;;;;;;6.77;6.17;;;15.50;99.90;;;;;;4993303;28;20199;-70
2023/09/28 05:15:49;;;;;;;6.40;5.73;;;15.50;99.90;;;;;;4993128;28;20426;-72
2023/09/28 05:18:15;;;;;;;7.10;6.40;;;15.50;99.90;;;;;;4993317;28;20430;-70
2023/09/28 05:20:40;;;;;;;7.07;6.27;;;15.50;99.90;;;;;;4993268;28;20182;-70
2023/09/28 05:23:06;;;;;;;7.83;7.03;;;15.60;99.90;;;;;;4991743;28;20202;-70
2023/09/28 05:25:35;;;;;;;11.40;10.20;;;15.60;99.90;;;;;;4993037;28;20234;-73
2023/09/28 05:28:02;;;;;;;10.70;9.60;;;15.70;99.90;;;;;;4993652;28;20234;-70
2023/09/28 05:30:27;;;;;;;7.40;6.70;;;15.60;99.90;;;;;;4991908;28;20443;-70
2023/09/28 05:32:53;;;;;;;12.50;9.10;;;15.60;99.90;;;;;;4992577;28;21026;-71
2023/09/28 05:35:19;;;;;;;9.80;7.80;;;15.50;99.90;;;;;;4993040;28;20544;-70
2023/09/28 05:37:45;;;;;;;8.80;6.37;;;15.50;99.90;;;;;;4993004;28;20542;-71
2023/09/28 05:40:11;;;;;;;8.23;7.43;;;15.50;99.90;;;;;;4991836;28;20426;-70
2023/09/28 05:42:37;;;;;;;7.60;7.00;;;15.60;99.90;;;;;;4992407;28;20206;-70
2023/09/28 05:45:03;;;;;;;7.57;6.83;;;15.60;99.90;;;;;;4992947;28;20419;-70
2023/09/28 05:47:28;;;;;;;7.73;6.93;;;15.60;99.90;;;;;;4992873;28;20298;-71
2023/09/28 05:49:54;;;;;;;7.83;7.13;;;15.60;99.90;;;;;;4992753;28;20437;-72
2023/09/28 05:52:20;;;;;;;8.60;6.37;;;15.60;99.90;;;;;;4991893;28;20207;-70
2023/09/28 05:54:46;;;;;;;9.90;7.10;;;15.70;99.90;;;;;;4985430;28;20553;-70
2023/09/28 05:57:13;;;;;;;7.03;6.27;;;15.70;99.90;;;;;;4992193;28;20422;-70
2023/09/28 05:59:38;;;;;;;10.13;7.10;;;15.70;99.90;;;;;;4992717;28;20793;-70
2023/09/28 06:02:04;;;;;;;9.10;6.80;;;15.80;99.90;;;;;;4992661;28;20493;-70
2023/09/28 06:04:30;;;;;;;9.97;8.47;;;15.90;99.90;;;;;;4991398;28;20184;-71
2023/09/28 06:06:56;;;;;;;9.23;8.30;;;15.90;99.90;;;;;;4992357;28;20230;-70
2023/09/28 06:09:22;;;;;;;8.23;7.50;;;15.90;99.90;;;;;;4992496;28;20183;-73
2023/09/28 06:11:48;;;;;;;9.23;7.07;;;16.00;99.90;;;;;;4992391;28;20746;-70
2023/09/28 06:14:15;;;;;;;9.30;7.10;;;16.20;99.90;;;;;;4990136;28;20176;-72
2023/09/28 06:16:42;;;;;;;7.63;6.90;;;16.10;99.90;;;;;;4992444;28;20423;-70
2023/09/28 06:19:07;;;;;;;7.70;6.90;;;16.20;99.90;;;;;;4992516;28;20860;-70
2023/09/28 06:21:33;;;;;;;7.60;6.80;;;16.30;99.90;;;;;;4992498;28;20608;-71
2023/09/28 06:23:58;;;;;;;14.40;9.30;;;16.40;99.90;;;;;;4991006;28;20214;-72
2023/09/28 06:26:24;;;;;;;8.40;7.57;;;16.40;99.90;;;;;;4992278;28;20210;-70
2023/09/28 06:28:50;;;;;;;6.73;5.97;;;16.40;99.90;;;;;;4992395;28;20689;-70
2023/09/28 06:31:18;;;;;;;7.97;7.27;;;16.50;99.90;;;;;;4992443;28;20278;-72
2023/09/28 06:33:45;;;;;;;8.00;7.30;;;16.70;99.90;;;;;;4992028;28;20258;-71
2023/09/28 06:36:10;;;;;;;9.80;6.80;;;17.00;99.90;;;;;;4991371;28;20438;-71
2023/09/28 06:38:36;;;;;;;9.10;7.23;;;17.30;99.90;;;;;;4992390;28;20782;-71
2023/09/28 06:41:02;;;;;;;8.20;7.27;;;17.60;99.90;;;;;;4992406;28;20640;-70
2023/09/28 06:43:28;;;;;;;10.67;6.90;;;17.80;99.90;;;;;;4990615;28;20195;-70
2023/09/28 06:45:56;;;;;;;9.90;7.90;;;18.00;99.90;;;;;;4992501;28;20422;-71
2023/09/28 06:48:22;;;;;;;7.30;6.60;;;18.20;99.90;;;;;;4991277;28;20522;-70
2023/09/28 06:50:49;;;;;;;6.80;6.20;;;18.40;99.90;;;;;;4992152;28;20458;-70
2023/09/28 06:53:18;;;;;;;6.83;6.23;;;18.50;99.90;;;;;;4990688;28;20216;-70
2023/09/28 06:55:44;;;;;;;9.17;5.87;;;18.60;99.90;;;;;;4990317;28;20445;-71
2023/09/28 06:58:13;;;;;;;6.97;6.37;;;18.90;99.90;;;;;;4992080;28;20423;-71
2023/09/28 07:00:39;;;;;;;9.90;7.00;;;19.20;99.90;;;;;;4992207;28;20422;-70
2023/09/28 07:03:05;;;;;;;8.30;6.73;;;19.50;99.90;;;;;;4991737;28;20438;-70
2023/09/28 07:05:31;;;;;;;7.10;6.20;;;19.60;99.90;;;;;;4990177;28;20817;-71
2023/09/28 07:07:58;;;;;;;7.07;6.37;;;19.70;99.90;;;;;;4991871;28;20204;-70
2023/09/28 07:10:23;;;;;;;13.83;6.30;;;19.80;99.90;;;;;;4994291;28;20473;-70
2023/09/28 07:12:49;;;;;;;8.80;7.90;;;20.00;99.90;;;;;;4995075;28;20536;-71
2023/09/28 07:15:14;;;;;;;8.13;7.23;;;20.20;99.90;;;;;;4994572;28;20275;-69
2023/09/28 07:17:40;;;;;;;6.90;6.30;;;20.50;99.90;;;;;;4995718;28;20266;-70
2023/09/28 07:20:07;;;;;;;8.13;7.33;;;20.80;99.90;;;;;;4995577;28;20172;-72
2023/09/28 07:22:33;;;;;;;8.23;6.63;;;21.00;99.90;;;;;;4995826;28;20530;-70
2023/09/28 07:24:58;;;;;;;7.53;6.63;;;21.00;99.90;;;;;;4994271;28;20465;-70
2023/09/28 07:27:31;;;;;;;8.37;6.83;;;21.10;99.90;;;;;;4995100;28;20171;-69
2023/09/28 07:29:57;;;;;;;9.03;7.97;;;21.40;99.90;;;;;;4995503;28;20665;-70
2023/09/28 07:32:22;;;;;;;12.77;6.50;;;21.60;99.90;;;;;;4995191;28;20785;-70
2023/09/28 07:34:48;;;;;;;10.00;7.37;;;21.70;99.90;;;;;;4993778;28;20418;-70
2023/09/28 07:37:15;;;;;;;9.87;6.73;;;21.50;99.90;;;;;;4995313;28;20248;-71
2023/09/28 07:39:40;;;;;;;7.70;7.00;;;21.70;99.90;;;;;;4995210;28;20171;-71
2023/09/28 07:42:08;;;;;;;9.50;6.73;;;21.90;99.90;;;;;;4995008;28;20818;-70
2023/09/28 07:44:34;;;;;;;11.30;6.57;;;22.10;99.90;;;;;;4994981;28;20234;-70
2023/09/28 07:47:00;;;;;;;9.27;7.80;;;22.50;99.90;;;;;;4994098;28;20419;-70
2023/09/28 07:49:25;;;;;;;8.33;6.20;;;22.70;99.90;;;;;;4994696;28;20935;-71
2023/09/28 07:51:51;;;;;;;7.47;6.77;;;22.60;99.90;;;;;;4994757;28;20182;-70
2023/09/28 07:54:17;;;;;;;8.67;6.37;;;22.40;99.90;;;;;;4994681;28;20176;-71
2023/09/28 07:56:42;;;;;;;6.40;5.63;;;22.30;99.90;;;;;;4994905;28;20496;-70
2023/09/28 07:59:08;;;;;;;7.30;5.13;;;22.40;99.90;;;;;;4993712;28;20180;-70
2023/09/28 08:01:38;;;;;;;7.70;5.30;;;23.00;99.90;;;;;;4994812;28;20194;-71
2023/09/28 08:04:03;;;;;;;6.47;5.90;;;23.50;99.90;;;;;;4994327;28;20253;-72
2023/09/28 08:06:29;;;;;;;6.80;6.10;;;24.00;99.00;;;;;;4994753;28;20507;-70
2023/09/28 08:08:54;;;;;;;5.87;5.37;;;24.60;95.90;;;;;;4994708;28;20179;-71
2023/09/28 08:11:20;;;;;;;8.83;7.33;;;25.00;92.50;;;;;;4993360;28;20187;-72
2023/09/28 08:13:45;;;;;;;6.27;5.50;;;25.10;90.90;;;;;;4994452;28;20286;-70
2023/09/28 08:16:11;;;;;;;6.90;6.07;;;25.20;90.00;;;;;;4994544;28;20222;-70
2023/09/28 08:18:36;;;;;;;6.23;5.57;;;25.40;89.00;;;;;;4994388;28;20191;-72
2023/09/28 08:21:03;;;;;;;5.87;5.33;;;25.10;88.20;;;;;;4993001;28;20186;-71
2023/09/28 08:23:30;;;;;;;7.00;5.67;;;24.70;91.10;;;;;;4993930;28;20195;-72
2023/09/28 08:25:55;;;;;;;6.20;5.60;;;24.40;92.70;;;;;;4994259;28;20510;-71
2023/09/28 08:28:22;;;;;;;5.80;5.17;;;24.00;94.10;;;;;;4994347;28;20852;-70
2023/09/28 08:30:48;;;;;;;13.93;11.40;;;23.40;96.00;;;;;;4994344;28;20172;-71
2023/09/28 08:33:15;;;;;;;16.47;14.00;;;23.00;98.10;;;;;;4992694;28;20477;-73
2023/09/28 08:35:47;;;;;;;12.73;9.90;;;22.70;99.20;;;;;;4994046;28;20182;-71
2023/09/28 08:38:12;;;;;;;8.00;6.90;;;22.60;99.90;;;;;;4994137;28;20423;-73
2023/09/28 08:40:40;;;;;;;11.60;10.40;;;22.60;99.90;;;;;;4993926;28;20429;-71
2023/09/28 08:43:10;;;;;;;12.57;11.30;;;22.80;99.90;;;;;;4993741;28;20211;-70
2023/09/28 08:45:38;;;;;;;12.37;9.70;;;23.70;99.90;;;;;;4992835;28;20439;-70
2023/09/28 08:48:06;;;;;;;8.40;7.67;;;25.30;95.90;;;;;;4993837;28;20426;-70
2023/09/28 08:50:37;;;;;;;14.67;6.50;;;26.70;91.60;;;;;;4994081;28;20509;-68
2023/09/28 08:53:04;;;;;;;8.43;6.10;;;28.00;86.80;;;;;;4992288;28;20848;-69
2023/09/28 08:55:33;;;;;;;6.20;5.60;;;29.20;82.10;;;;;;4993726;28;20414;-69
2023/09/28 08:57:58;;;;;;;10.13;6.40;;;29.90;75.60;;;;;;4992455;28;20449;-70
2023/09/28 09:00:25;;;;;;;6.80;5.60;;;30.50;70.60;;;;;;4992333;28;20480;-69
2023/09/28 09:02:55;;;;;;;8.60;7.20;;;30.80;65.80;;;;;;4993082;28;20197;-69
2023/09/28 09:05:21;;;;;;;9.10;6.43;;;31.50;63.20;;;;;;4993712;28;20569;-70
2023/09/28 09:07:48;;;;;;;6.63;5.57;;;32.00;58.70;;;;;;4992249;28;20933;-69
2023/09/28 09:10:20;;;;;;;5.87;4.73;;;32.30;57.70;;;;;;4993344;28;20190;-69
2023/09/28 09:12:45;;;;;;;6.13;5.13;;;31.40;57.10;;;;;;4992856;28;20466;-70
2023/09/28 09:15:13;;;;;;;7.17;4.47;;;31.40;57.00;;;;;;4993421;28;20423;-70
2023/09/28 09:17:38;;;;;;;5.70;5.10;;;32.00;55.70;;;;;;4992526;28;20168;-70
2023/09/28 09:20:08;;;;;;;6.40;4.93;;;32.50;54.00;;;;;;4993305;28;20438;-71
2023/09/28 09:22:34;;;;;;;7.67;5.60;;;33.50;53.80;;;;;;4993059;28;20238;-72
2023/09/28 09:25:00;;;;;;;12.23;6.00;;;34.70;50.70;;;;;;4993240;28;20419;-71
2023/09/28 09:27:30;;;;;;;5.20;4.80;;;35.10;48.50;;;;;;4993121;28;20489;-69
2023/09/28 09:30:03;;;;;;;5.50;5.10;;;36.10;46.00;;;;;;4992108;28;20258;-70
2023/09/28 09:32:28;;;;;;;5.47;5.07;;;36.10;43.00;;;;;;4992061;28;20474;-70
2023/09/28 09:34:54;;;;;;;7.87;5.10;;;36.10;41.80;;;;;;4992826;28;20485;-70
2023/09/28 09:37:20;;;;;;;5.77;5.20;;;37.00;41.20;;;;;;4992992;28;20174;-70
2023/09/28 09:39:45;;;;;;;5.63;5.00;;;37.10;39.50;;;;;;4992159;28;20295;-70
2023/09/28 09:42:11;;;;;;;5.67;4.30;;;37.80;39.30;;;;;;4990882;28;20650;-70
2023/09/28 09:44:38;;;;;;;7.23;5.50;;;37.90;39.00;;;;;;4992548;28;20180;-71
2023/09/28 09:47:03;;;;;;;5.37;4.87;;;38.20;38.30;;;;;;4992984;28;20250;-70
2023/09/28 09:49:30;;;;;;;5.33;4.83;;;38.40;37.20;;;;;;4992935;28;20904;-70
2023/09/28 09:51:59;;;;;;;7.93;5.00;;;38.10;37.30;;;;;;4991888;28;20531;-70
2023/09/28 09:54:25;;;;;;;5.83;5.33;;;38.80;36.10;;;;;;4992244;28;20789;-71
2023/09/28 09:56:52;;;;;;;5.17;4.43;;;39.50;35.10;;;;;;4992722;28;20422;-70
2023/09/28 09:59:19;;;;;;;5.20;4.70;;;39.10;34.90;;;;;;4992952;28;20175;-70
2023/09/28 10:01:48;;;;;;;4.87;4.47;;;39.70;34.00;;;;;;4992663;28;20423;-71
2023/09/28 10:04:18;;;;;;;9.60;4.33;;;39.90;33.00;;;;;;4991392;28;20434;-71
2023/09/28 10:06:54;;;;;;;4.77;4.40;;;40.40;31.80;;;;;;4992569;28;20433;-71
2023/09/28 10:09:20;;;;;;;4.30;4.10;;;41.00;30.40;;;;;;4992682;28;20434;-71
2023/09/28 10:11:48;;;;;;;4.40;4.00;;;41.50;29.20;;;;;;4992415;28;20819;-71
2023/09/28 10:14:21;;;;;;;5.23;4.73;;;41.90;28.20;;;;;;4992373;28;20430;-71
2023/09/28 10:16:53;;;;;;;5.07;4.67;;;42.20;28.20;;;;;;4991581;28;20448;-72
2023/09/28 10:19:21;;;;;;;4.10;3.70;;;42.20;27.50;;;;;;4992630;28;20815;-72
2023/09/28 10:21:50;;;;;;;4.37;3.97;;;42.40;25.60;;;;;;4991435;28;20426;-70
2023/09/28 10:24:20;;;;;;;3.03;2.87;;;42.30;25.00;;;;;;4992185;28;20427;-71
2023/09/28 10:26:50;;;;;;;3.00;2.80;;;42.70;23.50;;;;;;4991241;28;20506;-72
2023/09/28 10:29:23;;;;;;;3.30;3.10;;;43.30;22.60;;;;;;4991307;28;20435;-70
2023/09/28 10:31:51;;;;;;;4.13;2.97;;;43.40;22.50;;;;;;4992445;28;20854;-70
2023/09/28 10:34:21;;;;;;;3.23;3.00;;;42.50;22.50;;;;;;4992106;28;20858;-71
2023/09/28 10:37:18;;;;;;;4.03;3.73;;;41.60;23.40;;;;;;4992496;28;20423;-71
2023/09/28 10:39:51;;;;;;;3.53;3.33;;;41.80;24.00;;;;;;4992332;28;20773;-70
2023/09/28 10:42:17;;;;;;;4.60;4.30;;;41.60;24.20;;;;;;4990947;28;20462;-72
2023/09/28 10:44:55;;;;;;;4.53;4.23;;;41.20;24.20;;;;;;4994581;28;20872;-71
2023/09/28 10:47:21;;;;;;;4.47;4.07;;;41.50;24.80;;;;;;4996374;28;20738;-70
2023/09/28 10:49:48;;;;;;;4.90;4.23;;;42.20;24.50;;;;;;4996159;28;20426;-70
2023/09/28 10:52:14;;;;;;;4.37;4.07;;;42.40;24.50;;;;;;4994928;28;20635;-71
2023/09/28 10:54:41;;;;;;;5.23;4.10;;;41.90;24.60;;;;;;4995549;28;20522;-71
2023/09/28 10:57:09;;;;;;;4.40;4.10;;;41.00;25.10;;;;;;4995881;28;20204;-70
2023/09/28 10:59:37;;;;;;;4.03;3.73;;;40.00;25.30;;;;;;4996048;28;20841;-70
2023/09/28 11:02:03;;;;;;;3.63;3.20;;;40.50;24.90;;;;;;4994721;28;20446;-70
2023/09/28 11:04:29;;;;;;;3.10;2.90;;;40.60;24.30;;;;;;4995403;28;20433;-71
2023/09/28 11:06:55;;;;;;;4.03;3.47;;;40.90;24.50;;;;;;4995827;28;20790;-70
2023/09/28 11:09:21;;;;;;;4.43;4.10;;;41.90;24.00;;;;;;4995703;28;20175;-71
2023/09/28 11:11:49;;;;;;;3.70;3.40;;;42.70;23.50;;;;;;4994362;28;20521;-70
2023/09/28 11:14:14;;;;;;;3.70;3.50;;;42.50;23.10;;;;;;4995986;28;20223;-71
2023/09/28 11:16:41;;;;;;;3.47;3.20;;;42.90;22.80;;;;;;4995857;28;20418;-72
2023/09/28 11:19:08;;;;;;;4.17;2.97;;;43.00;22.20;;;;;;4995661;28;20685;-72
2023/09/28 11:21:34;;;;;;;3.60;3.23;;;42.50;21.80;;;;;;4994335;28;20447;-71
2023/09/28 11:24:00;;;;;;;3.67;3.47;;;42.30;21.90;;;;;;4995028;28;20474;-72
2023/09/28 11:26:28;;;;;;;4.43;3.40;;;42.00;22.30;;;;;;4995463;28;20672;-72
2023/09/28 11:28:56;;;;;;;4.03;3.73;;;41.50;22.50;;;;;;4995481;28;20267;-71
2023/09/28 11:31:21;;;;;;;3.67;3.37;;;41.50;22.70;;;;;;4995413;28;20812;-71
2023/09/28 11:33:47;;;;;;;3.73;3.33;;;41.30;22.80;;;;;;4993729;28;20462;-71
2023/09/28 11:36:21;;;;;;;6.63;3.70;;;42.00;22.80;;;;;;4993940;28;20171;-71
2023/09/28 11:38:53;;;;;;;4.10;3.70;;;43.20;22.40;;;;;;4995254;28;20175;-71
2023/09/28 11:41:21;;;;;;;6.00;4.00;;;44.40;21.20;;;;;;4995446;28;20505;-72
2023/09/28 11:43:47;;;;;;;2.97;2.80;;;44.40;21.60;;;;;;4993851;28;20538;-71
2023/09/28 11:46:17;;;;;;;3.03;2.83;;;44.30;20.30;;;;;;4994601;28;20789;-72
2023/09/28 11:48:43;;;;;;;3.30;2.80;;;44.60;20.30;;;;;;4975674;28;20423;-72
2023/09/28 11:51:09;;;;;;;2.43;2.30;;;44.60;19.90;;;;;;4975367;28;20438;-72
2023/09/28 11:53:40;;;;;;;2.80;2.70;;;45.00;19.30;;;;;;4975197;28;20208;-71
2023/09/28 11:56:06;;;;;;;3.40;3.20;;;45.30;19.70;;;;;;4978570;28;20591;-72
2023/09/28 11:58:33;;;;;;;3.20;3.00;;;45.30;20.00;;;;;;4994792;28;20481;-71
2023/09/28 12:00:58;;;;;;;5.03;3.17;;;45.50;20.40;;;;;;4994955;28;20164;-72
2023/09/28 12:03:24;;;;;;;4.10;3.70;;;45.40;21.10;;;;;;4994480;28;20505;-71
2023/09/28 12:05:50;;;;;;;3.50;3.30;;;45.80;20.80;;;;;;4994626;28;20203;-71
2023/09/28 12:08:15;;;;;;;3.43;3.13;;;45.50;19.60;;;;;;4993758;28;20247;-72
2023/09/28 12:10:41;;;;;;;3.67;3.43;;;45.90;18.90;;;;;;4994537;28;20653;-72
2023/09/28 12:13:06;;;;;;;3.30;3.10;;;46.00;18.80;;;;;;4994176;28;20243;-71
2023/09/28 12:15:32;;;;;;;3.60;3.40;;;45.80;18.50;;;;;;4994604;28;20238;-72
2023/09/28 12:17:58;;;;;;;3.47;3.17;;;45.70;18.80;;;;;;4993351;28;20210;-72
2023/09/28 12:20:24;;;;;;;3.43;3.23;;;45.70;18.90;;;;;;4994203;28;20164;-72
2023/09/28 12:22:51;;;;;;;4.00;3.70;;;45.50;18.70;;;;;;4994328;28;20234;-71
2023/09/28 12:25:18;;;;;;;3.47;3.27;;;45.60;18.50;;;;;;4994492;28;20241;-71
2023/09/28 12:27:44;;;;;;;3.10;2.90;;;45.90;18.50;;;;;;4994220;28;20423;-71
2023/09/28 12:30:12;;;;;;;3.23;2.90;;;46.50;18.20;;;;;;4993425;28;20928;-71
2023/09/28 12:32:38;;;;;;;2.53;2.37;;;46.40;18.00;;;;;;4993649;28;20544;-71
2023/09/28 12:35:07;;;;;;;2.73;2.63;;;45.60;18.00;;;;;;4994067;28;20842;-72
2023/09/28 12:37:35;;;;;;;2.60;2.50;;;45.50;18.00;;;;;;4994185;28;20167;-71
2023/09/28 12:40:03;;;;;;;2.87;2.67;;;45.50;18.00;;;;;;4994359;28;20506;-72
2023/09/28 12:42:29;;;;;;;3.10;2.80;;;45.70;18.00;;;;;;4992903;28;20963;-71
2023/09/28 12:44:58;;;;;;;2.60;2.50;;;45.80;17.90;;;;;;4992644;28;20445;-72